Weather observations for the past three days for
Phillips / Price County
Imperial (Metric)
Date Time (cdt) Wind (mph) Vis. (mi.) Weather Sky Cond. Temperature (ºF) Relative Humidity Wind Chill (°F) Heat Index (°F) Pressure Precipitation (in)
Air Dwpt 6 hour altimeter (in) sea level (mb) 1 hr 3 hr 6 hr
Max. Min.
05 19:35 NW 5 10.00 Overcast BKN060 OVC070 41.5 22.1 46% 39 29.79 0.0
05 19:15 NW 5 10.00 Overcast SCT060 OVC070 41.9 21.7 45% 40 29.78 0.0
05 18:55 NW 7 10.00 Overcast BKN070 OVC085 42.1 21.4 44.8 38.5 44% 38 29.78 0.0
05 18:35 NW 8 10.00 Overcast SCT060 OVC070 43.3 21.4 42% 39 29.78 0.0
05 18:15 W 8 10.00 Overcast BKN060 OVC070 42.3 20.7 42% 38 29.78 0.0
05 17:55 W 6 10.00 Overcast BKN060 OVC070 42.6 20.5 41% 40 29.78 0.0
05 17:35 NW 7 10.00 Overcast BKN060 OVC070 42.8 21.9 44% 39 29.79 0.0
05 17:15 NW 7 10.00 Overcast SCT050 OVC070 42.1 21.2 43% 38 29.79 0.0
05 16:55 NW 9 10.00 Overcast SCT060 OVC070 41.9 21.7 45% 37 29.79 0.0
05 16:35 W 7 10.00 Overcast SCT050 OVC060 41.5 21.6 45% 38 29.79 0.0
05 16:15 NW 13 G 21 10.00 Overcast OVC060 41.2 20.7 44% 35 29.79 0.0
05 15:55 W 8 G 17 10.00 Overcast OVC060 41.4 20.7 44% 37 29.79 0.0
05 15:35 W 7 G 18 10.00 Overcast OVC050 41.2 21 45% 37 29.79 0.0
05 15:15 W 6 G 18 10.00 Overcast OVC050 41.2 20.5 44% 38 29.79 0.0
05 14:55 W 8 10.00 Overcast OVC050 40.8 21 45% 36 29.79 0.0
05 14:35 W 8 10.00 Overcast OVC050 42.3 22.1 45% 38 29.78 0.0
05 14:15 W 8 G 22 10.00 Overcast OVC050 39.7 20.1 45% 35 29.78 0.0
05 13:55 NW 8 G 16 10.00 Overcast OVC050 40.1 20.3 45% 35 29.78 0.0
05 13:35 W 8 G 17 10.00 Overcast BKN049 OVC055 40.5 21.7 47% 36 29.77 0.0
05 13:15 W 10 G 23 10.00 Overcast BKN046 OVC055 40.8 22.5 48% 35 29.77 0.0
05 12:55 NW 10 G 24 10.00 Overcast BKN046 OVC055 38.7 21.7 41.5 32.5 51% 32 29.77 0.0
05 12:35 W 8 G 22 10.00 Overcast OVC050 39.2 20.8 48% 34 29.76 0.0
05 12:15 W 10 G 18 10.00 Overcast OVC050 39.9 20.5 46% 34 29.75 0.0
05 11:55 NW 15 G 20 10.00 Overcast OVC049 39.9 19.6 44% 32 29.75 0.0
05 11:35 NW 7 G 23 10.00 Overcast OVC049 39.2 18.5 43% 35 29.75 0.0
05 11:15 W 8 10.00 Overcast OVC049 40.8 20.1 44% 36 29.73 0.0
05 10:55 W 8 10.00 Overcast BKN049 OVC065 40.5 20.8 45% 36 29.73 0.0
05 10:35 NW 14 G 18 10.00 Mostly Cloudy BKN055 41 20.3 44% 34 29.72 0.0
05 10:15 W 9 10.00 Partly Cloudy SCT041 SCT049 40.3 22.6 49% 35 29.73 0.0
05 09:55 W 8 10.00 Mostly Cloudy BKN038 BKN047 38.5 23.5 55% 33 29.73 0.0
05 09:35 W 8 10.00 Partly Cloudy SCT036 39.6 24.4 55% 35 29.73 0.0
05 09:15 NW 10 G 16 10.00 Partly Cloudy BKN034 SCT041 36.9 24.1 60% 30 29.72 0.0
05 08:55 W 6 G 17 10.00 Mostly Cloudy BKN034 BKN039 BKN045 36.1 23.4 60% 32 29.72 0.0
05 08:35 NW 10 G 16 10.00 Partly Cloudy SCT034 SCT039 SCT045 35.8 23.2 60% 29 29.71 0.0
05 08:15 W 5 10.00 Partly Cloudy SCT038 36.1 26.1 67% 33 29.7 0.0
05 07:55 W 7 10.00 Overcast SCT031 OVC038 34.9 25.7 69% 30 29.69 0.0
05 07:35 W 3 10.00 Mostly Cloudy BKN033 34.2 25.7 71% 29.69 0.0
05 07:15 W 9 10.00 Mostly Cloudy BKN033 33.8 25.2 71% 27 29.68 0.0
05 06:55 W 3 10.00 Partly Cloudy SCT035 32.5 24.4 37.2 31.5 72% 29.67 0.0
05 06:35 W 3 10.00 Fair CLR 32 23.9 72% 29.66 0.0
05 06:15 Calm 10.00 Partly Cloudy SCT040 31.6 23.9 73% 29.66 0.0
05 05:55 W 3 10.00 Partly Cloudy SCT040 32 23.9 72% 29.65 0.0
05 05:35 Calm 10.00 Fair CLR 31.6 23.9 73% 29.65 0.0
05 05:15 W 3 10.00 Fair CLR 32 23.4 70% 29.65 0.0
05 04:55 Calm 10.00 Fair CLR 32.5 23.5 69% 29.64 0.0
05 04:35 W 5 10.00 Partly Cloudy SCT046 33.3 23.5 68% 30 29.63 0.0
05 04:15 Calm 10.00 Partly Cloudy SCT046 32.9 23.9 70% 29.63 0.0
05 03:55 Calm 10.00 Partly Cloudy SCT046 32.7 23.5 69% 29.62 0.0
05 03:35 Calm 10.00 Fair CLR 33.3 23.7 68% 29.62 0.0
05 03:15 W 3 10.00 Fair CLR 34.3 23.5 65% 29.62 0.0
05 02:55 Calm 10.00 Fair CLR 34 23.2 65% 29.62 0.0
05 02:35 Calm 10.00 Fair CLR 34.7 23 62% 29.62 0.0
05 02:15 Calm 10.00 Partly Cloudy SCT070 35.2 23.4 62% 29.63 0.0
05 01:55 Calm 10.00 Mostly Cloudy BKN070 35.6 23.9 62% 29.62 0.0
05 01:35 W 3 10.00 Mostly Cloudy BKN070 36.3 23.4 59% 29.63 0.0
05 01:15 Calm 10.00 Partly Cloudy SCT070 36.5 23 58% 29.63 0.0
05 00:55 Calm 10.00 Fair CLR 37.4 23 50.5 37.4 56% 29.62 0.0
05 00:35 W 3 10.00 Fair CLR 37.9 22.8 55% 29.62 0.0
05 00:15 W 3 10.00 Fair CLR 38.7 22.6 53% 29.62 0.0
04 23:55 W 3 10.00 Partly Cloudy SCT070 39.2 22.5 51% 29.61 0.0
04 23:35 NW 5 10.00 Partly Cloudy SCT065 39.4 22.3 50% 37 29.61 0.0
04 23:15 W 3 10.00 Partly Cloudy SCT065 39.6 22.1 50% 29.61 0.0
04 22:55 NW 6 10.00 Partly Cloudy SCT065 40.3 21.7 48% 37 29.61 0.0
04 22:35 NW 8 10.00 Partly Cloudy SCT065 40.8 21.6 46% 36 29.61 0.0
04 22:15 NW 10 G 16 10.00 Partly Cloudy SCT065 41.7 22.5 46% 36 29.61 0.0
04 21:55 NW 9 G 22 10.00 Overcast OVC065 42.8 23.5 47% 38 29.59 0.0
04 21:35 W 9 G 21 10.00 Overcast OVC065 43.3 24.4 47% 39 29.59 0.0
04 21:15 NW 7 G 22 10.00 Overcast OVC065 43.9 23.9 45% 40 29.58 0.0
04 20:55 NW 13 G 21 10.00 Overcast OVC065 44.8 25 46% 39 29.56 0.0
04 20:35 NW 14 G 20 10.00 Mostly Cloudy BKN065 45.7 26.6 47% 40 29.55 0.0
04 20:15 W 7 G 18 10.00 Mostly Cloudy BKN065 46.9 25.9 44% 44 29.54 0.0
04 19:55 NW 12 G 24 10.00 Mostly Cloudy BKN065 47.5 26.4 44% 43 29.53 0.0
04 19:35 NW 12 G 20 10.00 Overcast SCT065 OVC070 48.7 27 43% 44 29.52 0.0
04 19:15 NW 12 G 18 10.00 Overcast OVC065 49.5 27.7 43% 45 29.51 0.0
04 18:55 NW 9 G 21 10.00 Mostly Cloudy BKN065 50.2 27.5 61.5 50.2 42% 29.5 0.0
04 18:35 W 12 G 21 10.00 Partly Cloudy SCT065 51.6 27.3 39% 29.49 0.0
04 18:15 W 12 G 21 10.00 Mostly Cloudy BKN065 54 28.9 38% 29.48 0.0
04 17:55 NW 12 G 24 10.00 Partly Cloudy SCT065 54.7 28.8 37% 29.47 0.0
04 17:35 NW 15 G 23 10.00 Partly Cloudy SCT065 SCT075 54.1 29.1 38% 29.45 0.0
04 17:15 NW 16 G 28 10.00 Partly Cloudy SCT070 56.8 30 36% 29.44 0.0
04 16:55 NW 12 G 23 10.00 Partly Cloudy SCT070 57.7 31.3 37% 29.43 0.0
04 16:35 W 10 G 22 10.00 Partly Cloudy SCT070 SCT090 58.8 31.8 36% 29.42 0.0
04 16:15 W 16 G 30 10.00 Mostly Cloudy BKN070 BKN090 59.7 30.2 33% 29.41 0.0
04 15:55 W 12 G 20 10.00 Mostly Cloudy SCT065 BKN080 59.7 32.2 35% 29.4 0.0
04 15:35 W 14 G 22 10.00 Partly Cloudy SCT065 SCT080 SCT120 60.1 32 35% 29.4 0.0
04 15:15 NW 10 G 20 10.00 Mostly Cloudy SCT065 SCT080 BKN120 58.1 31.5 37% 29.4 0.0
04 14:55 W 14 G 21 10.00 Mostly Cloudy BKN065 BKN080 BKN090 59.2 32.5 37% 29.4 0.0
04 14:35 W 8 G 20 10.00 Overcast BKN065 BKN080 OVC110 59 32.9 37% 29.39 0.0
04 14:15 W 10 G 23 10.00 Overcast SCT065 OVC110 58.3 32 37% 29.39 0.0
04 13:55 W 8 G 26 10.00 Mostly Cloudy SCT065 BKN110 59.4 31.6 35% 29.38 0.0
04 13:35 W 8 G 18 10.00 Partly Cloudy SCT065 SCT110 60.6 32.4 35% 29.38 0.0
04 13:15 SW 18 G 25 10.00 Partly Cloudy SCT065 61.3 32.4 34% 29.37 0.0
04 12:55 W 17 G 29 10.00 Partly Cloudy SCT065 60.8 30 62.8 54.1 31% 29.36 0.0
04 12:35 W 17 G 23 10.00 Fair CLR 61.2 33.3 35% 29.36 0.0
04 12:15 W 9 G 23 10.00 Partly Cloudy SCT100 60.6 33.3 36% 29.37 0.0
04 11:55 W 14 G 23 10.00 Overcast OVC100 59.9 31.1 34% 29.36 0.0
04 11:35 NW 15 G 24 10.00 Overcast SCT065 OVC100 61 33.3 35% 29.35 0.0
04 11:15 W 9 G 22 10.00 Mostly Cloudy SCT065 BKN100 62.6 36.1 37% 29.34 0.0
04 10:55 W 16 G 25 10.00 Partly Cloudy SCT090 SCT110 62.6 35.4 36% 29.34 0.0
04 10:35 W 12 G 17 10.00 Partly Cloudy SCT110 61.2 36.9 41% 29.33 0.0
04 10:15 SW 17 G 23 10.00 Partly Cloudy SCT120 61.2 36.9 41% 29.33 0.0
04 09:55 W 13 G 24 10.00 Mostly Cloudy BKN120 59 35.6 42% 29.33 0.0
04 09:35 W 10 G 18 10.00 Mostly Cloudy BKN110 59 35.8 42% 29.33 0.0
04 09:15 W 10 10.00 Mostly Cloudy BKN110 58.1 35.1 42% 29.33 0.0
04 08:55 SW 15 G 26 10.00 Overcast OVC110 58.1 34.7 42% 29.32 0.0
04 08:35 SW 14 G 26 10.00 Mostly Cloudy BKN110 58.6 34 40% 29.33 0.0
04 08:15 SW 20 G 31 10.00 Partly Cloudy SCT110 58.3 33.6 40% 29.33 0.0
04 07:55 SW 17 G 24 10.00 Partly Cloudy SCT090 57.2 33.1 40% 29.31 0.0
04 07:35 SW 15 G 24 10.00 Mostly Cloudy BKN090 BKN120 55.9 32.7 42% 29.32 0.0
04 07:15 SW 14 G 24 10.00 Mostly Cloudy SCT090 BKN120 54.9 32.5 43% 29.33 0.0
04 06:55 SW 10 10.00 Mostly Cloudy BKN100 BKN110 54.1 31.8 54.1 48.7 43% 29.34 0.0
04 06:35 SW 13 G 16 10.00 Mostly Cloudy BKN110 53.4 31.1 43% 29.35 0.0
04 06:15 SW 10 10.00 Partly Cloudy SCT110 52.2 31.3 45% 29.36 0.0
04 05:55 SW 10 10.00 Fair CLR 50.9 31.1 47% 29.37 0.0
04 05:35 S 8 10.00 Fair CLR 50.4 30.7 47% 29.38 0.0
04 05:15 S 9 10.00 Fair CLR 50.2 30.4 47% 29.4 0.0
04 04:55 S 8 10.00 Fair CLR 50.9 30 45% 29.41 0.0
04 04:35 S 9 10.00 Fair CLR 51.3 30 44% 29.42 0.0
04 04:15 S 9 10.00 Fair CLR 51.1 29.8 44% 29.43 0.0
04 03:55 S 8 10.00 Fair CLR 50.9 30 45% 29.45 0.0
04 03:35 SW 7 10.00 Fair CLR 50.9 29.3 44% 29.46 0.0
04 03:20 SW 7 10.00 Fair CLR 50.5 29.3 44% 29.46 0.0
04 02:55 SW 6 10.00 Fair CLR 50.2 28.9 44% 29.48 0.0
04 02:35 S 6 10.00 Fair CLR 50 28.6 44% 48 29.49 0.0
04 02:15 S 6 10.00 Fair CLR 50 28.8 44% 48 29.5 0.0
04 01:55 S 6 10.00 Fair CLR 49.6 28.9 45% 48 29.51 0.0
04 01:35 SW 7 10.00 Fair CLR 49.8 28.8 44% 47 29.53 0.0
04 01:15 SW 7 10.00 Fair CLR 49.6 28.6 44% 47 29.53 0.0
04 00:55 SW 3 10.00 Fair CLR 48.7 28.4 64.6 41.4 45% 29.55 0.0
04 00:35 SW 3 10.00 Fair CLR 48 29.1 48% 29.56 0.0
04 00:15 Calm 10.00 Fair CLR 42.8 31.6 65% 29.57 0.0
03 23:55 Calm 10.00 Fair CLR 43.5 30 59% 29.57 0.0
03 23:35 Calm 10.00 Fair CLR 43.7 31.1 61% 29.58 0.0
03 23:15 Calm 10.00 Fair CLR 44.1 31.3 61% 29.59 0.0
03 22:55 Calm 10.00 Fair CLR 45.1 32 60% 29.6 0.0
03 22:35 Calm 10.00 Fair CLR 45.5 31.8 59% 29.61 0.0
03 22:15 Calm 10.00 Fair CLR 48 30 50% 29.61 0.0
03 21:55 Calm 10.00 Fair CLR 49.5 29.1 46% 29.61 0.0
03 21:35 Calm 10.00 Fair CLR 51.3 28.8 42% 29.61 0.0
03 21:15 Calm 10.00 Fair CLR 50.2 27.9 42% 29.62 0.0
03 20:55 Calm 10.00 Fair CLR 54.1 24.3 31% 29.61 0.0
03 20:35 Calm 10.00 Fair CLR 59.5 21.9 23% 29.61 0.0
03 20:15 W 5 10.00 Fair CLR 60.4 21.4 22% 29.61 0.0
03 19:55 W 5 10.00 Fair CLR 61.7 20.7 20% 29.61 0.0
03 19:35 W 9 G 17 10.00 Fair CLR 62.8 20.3 19% 29.61 0.0
03 19:15 NW 12 G 16 10.00 Fair CLR 64.4 21 19% 29.61 0.0
03 18:55 NW 8 10.00 Fair CLR 64.4 20.8 67.8 63.9 19% 29.6 0.0
03 18:35 W 8 G 20 10.00 Fair CLR 65.3 23.5 20% 29.6 0.0
03 18:15 W 6 G 17 10.00 Fair CLR 65.8 24.3 21% 29.59 0.0
03 17:55 NW 12 G 20 10.00 Fair CLR 66.2 25.3 21% 29.59 0.0
03 17:35 W 8 G 17 10.00 Fair CLR 66.2 27 23% 29.59 0.0
03 17:15 W 8 10.00 Fair CLR 67.3 30.2 25% 29.59 0.0
03 16:55 W 8 G 24 10.00 Fair CLR 67.3 30 25% 29.59 0.0
03 16:35 W 10 10.00 Fair CLR 66.7 30 25% 29.59 0.0
03 16:15 NW 10 G 20 10.00 Partly Cloudy SCT080 67.6 31.1 26% 29.59 0.0
03 15:55 W 8 G 20 10.00 Partly Cloudy SCT080 67.3 32.2 27% 29.59 0.0
03 15:35 W 3 G 17 10.00 Partly Cloudy SCT080 65.8 32 28% 29.6 0.0
03 15:15 W 10 10.00 Partly Cloudy SCT080 67.1 35.4 31% 29.61 0.0
03 14:55 W 8 G 17 10.00 Partly Cloudy SCT080 64.9 34.3 32% 29.61 0.0
03 14:35 W 7 10.00 Partly Cloudy SCT080 65.8 35.4 32% 29.62 0.0
03 14:15 W 9 10.00 Partly Cloudy SCT070 SCT080 65.3 35.1 33% 29.62 0.0
03 13:55 NW 9 10.00 Mostly Cloudy BKN070 66 37 34% 29.62 0.0
03 13:35 SW 12 G 17 10.00 Mostly Cloudy BKN070 65.3 35.8 34% 29.63 0.0
03 13:15 W 6 10.00 Partly Cloudy SCT070 64.6 36.1 35% 29.63 0.0
03 12:55 W 9 10.00 Partly Cloudy SCT070 63.9 37.4 64.8 47.3 38% 29.63 0.0
03 12:15 W 8 10.00 Partly Cloudy SCT060 63.9 38.5 39% 29.64 0.0
03 11:55 SW 9 10.00 Partly Cloudy SCT060 62.8 38.7 41% 29.65 0.0
03 11:35 Calm 10.00 Fair CLR 62.1 37.6 40% 29.65 0.0
03 11:15 W 10 10.00 Fair CLR 61.5 37.9 42% 29.65 0.0
03 10:55 W 7 10.00 Fair CLR 60.3 36.1 41% 29.66 0.0
03 10:35 SW 9 10.00 Fair CLR 60.6 37.4 42% 29.66 0.0
03 10:15 SW 10 G 16 10.00 Fair CLR 58.6 37 45% 29.66 0.0
03 09:55 W 13 G 24 10.00 Fair CLR 58.1 36.3 44% 29.67 0.0
03 09:35 SW 13 10.00 Fair CLR 57.4 36.9 46% 29.67 0.0
03 09:15 SW 10 10.00 Fair CLR 56.5 38.5 51% 29.68 0.0
03 08:55 SW 9 10.00 Fair CLR 54 38.7 56% 29.68 0.0
03 08:35 SW 8 10.00 Partly Cloudy SCT080 52 37.9 59% 29.69 0.0
03 08:15 SW 6 10.00 Overcast OVC080 50 37.6 63% 48 29.68 0.0
03 07:55 SW 6 10.00 Overcast OVC080 49.3 36.9 62% 47 29.68 0.0
03 07:35 SW 5 10.00 Overcast OVC080 48.6 36.1 62% 47 29.68 0.0
03 07:15 SW 5 10.00 Overcast SCT085 OVC110 48.4 36 62% 47 29.68 0.0
03 06:55 SW 5 10.00 Mostly Cloudy SCT100 BKN120 47.1 36 50.4 43.9 65% 46 29.68 0.0
03 06:35 SW 5 10.00 Partly Cloudy SCT120 44.8 35.6 70% 43 29.68 0.0
03 06:15 Calm 10.00 Fair CLR 44.4 35.6 71% 29.69 0.0
03 05:55 S 6 10.00 Fair CLR 44.6 35.8 71% 42 29.69 0.0
03 05:35 S 5 10.00 Partly Cloudy SCT090 45.1 36.3 71% 43 29.7 0.0
03 05:15 S 5 10.00 Overcast OVC100 45.9 37.6 73% 44 29.7 0.0
03 04:55 S 5 10.00 Overcast SCT085 OVC100 45.5 39.6 80% 44 29.71 0.0
03 04:35 Calm 10.00 Overcast OVC075 46.6 40.5 79% 29.71 0.0
03 04:15 Calm 10.00 Overcast BKN075 OVC085 46.9 39.2 75% 29.72 0.0
03 03:55 S 6 10.00 Overcast SCT065 OVC075 45.5 41.4 86% 43 29.73 0.0
03 03:35 SE 3 10.00 Light Rain BKN050 BKN065 OVC070 46.4 41 82% 29.74 0.0
03 03:15 Calm 10.00 Light Rain BKN060 OVC070 48.4 36.9 65% 29.76 0.0
03 02:55 Calm 10.00 Light Rain SCT060 BKN065 OVC090 49.1 36.1 61% 29.77 0.0
03 02:35 W 3 10.00 Light Rain BKN060 OVC070 49.8 35.1 57% 29.77 0.0
03 02:15 W 6 10.00 Overcast SCT060 OVC070 50.4 33.8 53% 29.77 0.0
03 01:55 W 3 10.00 Overcast BKN060 OVC070 49.5 34.3 56% 29.77 0.0
03 01:35 SW 3 10.00 Overcast OVC070 49.8 33.8 54% 29.77 0.0
03 01:15 S 3 10.00 Overcast OVC070 48.4 34.5 59% 29.77 0.0
03 00:55 Calm 10.00 Overcast BKN060 OVC070 49.1 35.2 56.8 48.4 59% 29.78 0.0
03 00:35 SW 3 10.00 Overcast SCT060 OVC070 50.5 34.3 54% 29.78 0.0
03 00:15 Calm 10.00 Overcast SCT060 SCT070 OVC075 51.3 33.4 51% 29.79 0.0
02 23:55 SW 3 10.00 Mostly Cloudy BKN080 BKN090 BKN120 50.7 32 49% 29.79 0.0
02 23:35 S 5 10.00 Partly Cloudy SCT080 SCT120 48.4 31.6 53% 47 29.79 0.0
02 23:15 S 6 10.00 Partly Cloudy SCT120 49.1 31.8 51% 47 29.8 0.0
02 22:55 S 5 10.00 Partly Cloudy SCT085 SCT120 49.5 32 51% 48 29.8 0.0
02 22:35 S 5 10.00 Partly Cloudy SCT085 SCT120 49.8 31.8 50% 49 29.81 0.0
02 22:15 S 5 10.00 Fair CLR 49.5 31.6 50% 48 29.82 0.0
02 21:55 S 3 7.00 Mostly Cloudy BKN090 50.9 31.5 47% 29.82 0.0
02 21:35 S 5 10.00 Overcast OVC090 52.9 31.3 44% 29.83 0.0
02 21:15 SW 3 10.00 Overcast OVC080 53.4 30.9 42% 29.83 0.0
02 20:55 SW 5 10.00 Overcast SCT075 OVC090 53.8 31.1 42% 29.83 0.0
02 20:35 SW 5 10.00 Overcast SCT075 OVC090 54.5 30.2 40% 29.83 0.0
02 20:15 SW 6 10.00 Overcast SCT080 OVC090 54.9 30 39% 29.83 0.0
02 19:55 SW 6 10.00 Mostly Cloudy BKN080 BKN090 55.2 30.2 39% 29.84 0.0
Date Time (cdt) Wind (mph) Vis. (mi.) Weather Sky Cond. Air Dwpt Max. Min. Relative Humidity Wind Chill (°F) Heat Index (°F) altimeter (in) sea level (mb) 1 hr 3 hr 6 hr
6 hour
Temperature (ºF) Pressure Precipitation (in)